Time;durP1;ratioP1;P1;durP2;ratioP2;P2;SDS_P1;SDS_P2;PMS_P1;PMS_P2;Temp;Humidity;BMP_temperature;BMP_pressure;BME280_temperature;BME280_humidity;BME280_pressure;Samples;Min_cycle;Max_cycle;Signal;HPM_P1;HPM_P2
2023/08/23 00:01:22;;;;;;;4.80;4.40;;;;;;;23.05;80.95;98414.31;5032408;28;20211;-84
2023/08/23 00:03:48;;;;;;;5.00;4.50;;;;;;;22.96;82.41;98428.88;5032450;28;20225;-84
2023/08/23 00:06:14;;;;;;;5.23;4.43;;;;;;;22.90;83.70;98424.19;5032525;28;20220;-84
2023/08/23 00:08:41;;;;;;;5.30;4.80;;;;;;;22.80;84.61;98418.16;5045478;28;20215;-83
2023/08/23 00:11:07;;;;;;;4.93;4.53;;;;;;;22.76;84.63;98411.44;5048129;28;20238;-83
2023/08/23 00:13:34;;;;;;;5.50;4.97;;;;;;;22.74;84.65;98418.03;5047474;28;20236;-83
2023/08/23 00:16:02;;;;;;;5.33;4.67;;;;;;;22.70;84.93;98417.53;5035412;28;20216;-84
2023/08/23 00:18:28;;;;;;;5.10;4.60;;;;;;;22.68;85.18;98407.94;5032471;28;20205;-85
2023/08/23 00:20:55;;;;;;;5.40;4.80;;;;;;;22.63;85.27;98410.31;5032044;28;20212;-85
2023/08/23 00:23:21;;;;;;;5.60;5.10;;;;;;;22.59;85.37;98415.22;5032209;28;20237;-84
2023/08/23 00:25:47;;;;;;;5.53;5.03;;;;;;;22.59;85.32;98411.66;5032141;28;20216;-84
2023/08/23 00:28:15;;;;;;;5.67;4.80;;;;;;;22.56;85.39;98415.56;5032195;28;20217;-84
2023/08/23 00:30:49;;;;;;;6.60;4.93;;;;;;;22.53;85.72;98410.53;5032046;28;20212;-84
2023/08/23 00:33:16;;;;;;;6.30;4.73;;;;;;;22.57;85.19;98398.41;5032072;28;20236;-84
2023/08/23 00:35:43;;;;;;;6.13;5.27;;;;;;;22.53;85.18;98405.13;5031927;28;20300;-84
2023/08/23 00:38:09;;;;;;;6.30;5.13;;;;;;;22.49;85.38;98406.50;5031653;28;20593;-84
2023/08/23 00:40:36;;;;;;;5.27;4.77;;;;;;;22.46;85.51;98401.47;5031611;28;20223;-84
2023/08/23 00:43:06;;;;;;;5.30;4.70;;;;;;;22.45;85.92;98407.03;5031707;28;20664;-84
2023/08/23 00:45:35;;;;;;;5.50;5.00;;;;;;;22.39;86.33;98397.75;5032053;28;20208;-85
2023/08/23 00:48:02;;;;;;;5.37;4.60;;;;;;;22.38;86.76;98398.75;5031919;28;20204;-84
2023/08/23 00:50:30;;;;;;;6.70;5.73;;;;;;;22.35;87.30;98395.56;5031470;28;20689;-84
2023/08/23 00:52:56;;;;;;;5.50;5.00;;;;;;;22.31;87.88;98397.75;5031652;28;20233;-85
2023/08/23 00:55:24;;;;;;;5.90;5.33;;;;;;;22.30;87.99;98393.38;5031754;28;20217;-85
2023/08/23 00:57:51;;;;;;;6.03;5.43;;;;;;;22.29;87.67;98397.09;5032038;28;20212;-85
2023/08/23 01:00:17;;;;;;;6.37;5.70;;;;;;;22.26;88.26;98393.91;5031656;28;20204;-85
2023/08/23 01:02:44;;;;;;;7.20;5.50;;;;;;;22.17;89.00;98398.47;5043068;28;20234;-82
2023/08/23 01:05:11;;;;;;;5.27;4.70;;;;;;;22.17;89.21;98397.63;5055953;28;20260;-83
2023/08/23 01:07:47;;;;;;;5.90;5.27;;;;;;;22.14;89.49;98404.19;5055670;28;20211;-83
2023/08/23 01:10:24;;;;;;;5.47;4.97;;;;;;;22.04;89.88;98403.56;5055095;28;20200;-82
2023/08/23 01:13:03;;;;;;;6.00;5.33;;;;;;;22.10;89.72;98400.19;5032837;28;20243;-84
2023/08/23 01:15:31;;;;;;;6.30;5.70;;;;;;;22.01;90.04;98392.28;5032412;28;20675;-84
2023/08/23 01:17:59;;;;;;;7.43;5.70;;;;;;;22.03;89.90;98401.88;5032124;28;20208;-85
2023/08/23 01:20:26;;;;;;;6.10;5.50;;;;;;;22.04;89.88;98397.31;5032123;28;20213;-84
2023/08/23 01:23:02;;;;;;;6.77;5.40;;;;;;;21.94;90.44;98397.50;5032857;28;20228;-85
2023/08/23 01:25:29;;;;;;;6.73;5.07;;;;;;;21.89;91.22;98394.47;5031669;28;20248;-85
2023/08/23 01:27:55;;;;;;;6.30;5.70;;;;;;;21.86;91.61;98400.22;5031734;28;20212;-85
2023/08/23 01:30:23;;;;;;;5.93;5.43;;;;;;;21.84;91.66;98404.94;5031448;28;20208;-84
2023/08/23 01:32:56;;;;;;;6.57;5.20;;;;;;;21.83;92.06;98410.47;5031202;28;20233;-84
2023/08/23 01:35:32;;;;;;;6.37;5.33;;;;;;;21.84;92.07;98413.00;5031456;28;20220;-86
2023/08/23 01:38:02;;;;;;;5.87;5.37;;;;;;;21.78;92.46;98419.06;5031569;28;20208;-84
2023/08/23 01:40:29;;;;;;;5.87;5.37;;;;;;;21.75;92.76;98408.63;5030993;28;20217;-85
2023/08/23 01:42:57;;;;;;;6.07;5.43;;;;;;;21.68;93.59;98415.69;5031145;28;20212;-85
2023/08/23 01:45:23;;;;;;;6.53;5.50;;;;;;;21.67;93.74;98416.72;5031148;28;20212;-85
2023/08/23 01:47:50;;;;;;;6.27;5.60;;;;;;;21.67;93.68;98413.16;5031422;28;20231;-85
2023/08/23 01:50:16;;;;;;;7.07;5.90;;;;;;;21.66;93.64;98424.91;5031674;28;20691;-85
2023/08/23 01:52:43;;;;;;;6.03;5.47;;;;;;;21.62;93.81;98416.34;5035035;28;20229;-85
2023/08/23 01:55:11;;;;;;;6.17;5.57;;;;;;;21.58;94.20;98423.03;5034965;28;20215;-84
2023/08/23 01:57:39;;;;;;;7.27;5.80;;;;;;;21.57;94.27;98417.84;5034854;28;20219;-85
2023/08/23 02:00:07;;;;;;;6.57;5.67;;;;;;;21.57;94.26;98409.78;5034601;28;20741;-86
2023/08/23 02:02:34;;;;;;;7.57;6.03;;;;;;;21.59;94.27;98407.75;5035054;28;20208;-85
2023/08/23 02:05:00;;;;;;;6.47;5.47;;;;;;;21.58;94.23;98406.09;5035072;28;20229;-84
2023/08/23 02:07:27;;;;;;;6.60;5.90;;;;;;;21.58;94.41;98401.53;5034979;28;20217;-85
2023/08/23 02:09:53;;;;;;;7.60;5.97;;;;;;;21.52;94.53;98404.88;5034607;28;20208;-84
2023/08/23 02:12:21;;;;;;;7.37;6.13;;;;;;;21.48;95.13;98408.94;5034717;28;20212;-83
2023/08/23 02:14:48;;;;;;;7.83;6.63;;;;;;;21.49;94.99;98402.56;5034488;28;20596;-84
2023/08/23 02:17:14;;;;;;;7.77;5.50;;;;;;;21.43;95.41;98408.59;5034831;28;20231;-84
2023/08/23 02:19:41;;;;;;;6.23;5.67;;;;;;;21.43;95.56;98408.59;5034566;28;20300;-84
2023/08/23 02:22:07;;;;;;;6.70;6.00;;;;;;;21.45;95.39;98405.75;5034427;28;20209;-84
2023/08/23 02:24:34;;;;;;;6.80;6.10;;;;;;;21.40;95.56;98403.53;5034444;28;20239;-84
2023/08/23 02:27:00;;;;;;;6.10;5.50;;;;;;;21.35;96.06;98405.06;5034369;28;20208;-86
2023/08/23 02:29:28;;;;;;;6.47;5.83;;;;;;;21.37;96.07;98409.25;5034323;28;20223;-85
2023/08/23 02:31:54;;;;;;;6.50;5.80;;;;;;;21.35;95.85;98397.84;5034359;28;20208;-84
2023/08/23 02:34:21;;;;;;;6.43;5.63;;;;;;;21.30;96.01;98402.03;5033984;28;20262;-84
2023/08/23 02:36:47;;;;;;;6.37;5.73;;;;;;;21.29;96.32;98411.09;5034317;28;20209;-85
2023/08/23 02:39:13;;;;;;;7.03;5.93;;;;;;;21.28;96.79;98409.41;5033976;28;20224;-84
2023/08/23 02:41:40;;;;;;;6.63;6.00;;;;;;;21.26;97.04;98411.41;5034430;28;20205;-85
2023/08/23 02:44:06;;;;;;;6.53;5.83;;;;;;;21.20;97.70;98412.06;5034252;28;20231;-84
2023/08/23 02:46:34;;;;;;;6.60;5.63;;;;;;;21.17;97.92;98413.28;5034488;28;20209;-86
2023/08/23 02:49:01;;;;;;;9.67;5.90;;;;;;;21.15;98.27;98415.25;5033853;28;20216;-84
2023/08/23 02:51:27;;;;;;;6.73;5.77;;;;;;;21.11;98.35;98413.94;5033931;28;20291;-84
2023/08/23 02:53:53;;;;;;;7.23;5.80;;;;;;;21.09;98.43;98407.84;5033816;28;20247;-84
2023/08/23 02:56:20;;;;;;;7.00;6.20;;;;;;;21.09;98.40;98405.16;5033775;28;20208;-84
2023/08/23 02:58:46;;;;;;;6.70;5.57;;;;;;;21.06;98.85;98400.16;5033872;28;20217;-86
2023/08/23 03:01:13;;;;;;;7.43;6.07;;;;;;;21.02;99.21;98397.97;5033160;28;20686;-85
2023/08/23 03:03:41;;;;;;;5.73;5.23;;;;;;;20.97;99.83;98402.97;5033808;28;20604;-85
2023/08/23 03:06:07;;;;;;;7.13;6.10;;;;;;;20.96;99.83;98399.44;5033634;28;20209;-84
2023/08/23 03:08:34;;;;;;;6.90;5.67;;;;;;;20.92;100.00;98397.25;5033595;28;20213;-85
2023/08/23 03:11:04;;;;;;;6.70;5.77;;;;;;;20.91;100.00;98400.94;5033396;28;20694;-84
2023/08/23 03:13:30;;;;;;;6.70;6.03;;;;;;;20.85;100.00;98407.75;5033456;28;20229;-85
2023/08/23 03:15:57;;;;;;;7.53;6.23;;;;;;;20.87;100.00;98395.03;5033702;28;20220;-85
2023/08/23 03:18:23;;;;;;;7.33;6.20;;;;;;;20.95;100.00;98408.50;5033627;28;20204;-85
2023/08/23 03:20:52;;;;;;;7.43;6.10;;;;;;;21.03;99.59;98405.81;5033329;28;20215;-85
2023/08/23 03:23:19;;;;;;;6.90;5.90;;;;;;;21.02;99.12;98408.72;5049113;22;20354;-85
2023/08/23 03:25:46;;;;;;;8.00;5.80;;;;;;;20.93;100.00;98410.53;5051826;28;20707;-86
2023/08/23 03:28:12;;;;;;;8.07;6.00;;;;;;;20.98;99.83;98408.16;5053066;28;20212;-86
2023/08/23 03:30:39;;;;;;;6.57;5.87;;;;;;;20.89;100.00;98414.53;5052409;28;20208;-86
2023/08/23 03:33:06;;;;;;;7.30;5.77;;;;;;;20.83;100.00;98412.47;5052776;28;20239;-86
2023/08/23 03:35:32;;;;;;;7.27;5.90;;;;;;;20.75;100.00;98401.69;5052729;28;20224;-86
2023/08/23 03:38:01;;;;;;;8.37;6.40;;;;;;;20.81;100.00;98406.44;5052532;28;20212;-86
2023/08/23 03:40:27;;;;;;;6.47;5.87;;;;;;;20.73;100.00;98394.81;5052457;28;20207;-86
2023/08/23 03:42:54;;;;;;;6.60;5.90;;;;;;;20.72;100.00;98391.25;5052814;28;20290;-86
2023/08/23 03:45:20;;;;;;;7.00;5.97;;;;;;;20.70;100.00;98397.81;5052329;28;20239;-86
2023/08/23 03:47:46;;;;;;;7.13;6.43;;;;;;;20.70;100.00;98398.66;5052629;28;20583;-86
2023/08/23 03:50:13;;;;;;;7.97;6.60;;;;;;;20.64;100.00;98398.44;5052169;28;20208;-86
2023/08/23 03:52:39;;;;;;;6.67;5.97;;;;;;;20.62;100.00;98401.31;5052309;28;20208;-86
2023/08/23 03:55:08;;;;;;;7.00;6.10;;;;;;;20.57;100.00;98395.59;5052356;28;20285;-86
2023/08/23 03:57:34;;;;;;;7.00;6.30;;;;;;;20.54;100.00;98398.59;5052358;28;20215;-86
2023/08/23 04:00:01;;;;;;;6.90;6.20;;;;;;;20.52;100.00;98392.53;5051798;28;20212;-86
2023/08/23 04:02:27;;;;;;;7.77;6.57;;;;;;;20.54;100.00;98395.91;5052325;28;20543;-86
2023/08/23 04:04:54;;;;;;;6.50;5.90;;;;;;;20.51;100.00;98406.97;5051901;28;20228;-86
2023/08/23 04:07:20;;;;;;;6.57;5.73;;;;;;;20.51;100.00;98409.66;5052251;28;20215;-87
2023/08/23 04:09:47;;;;;;;7.17;5.93;;;;;;;20.48;100.00;98409.97;5052022;28;20210;-87
2023/08/23 04:12:15;;;;;;;7.80;6.60;;;;;;;20.48;100.00;98409.97;5052198;28;20208;-86
2023/08/23 04:14:41;;;;;;;6.83;6.13;;;;;;;20.45;100.00;98410.31;5051138;28;20231;-86
2023/08/23 04:17:08;;;;;;;7.57;6.30;;;;;;;20.44;100.00;98405.94;5051761;28;20211;-87
2023/08/23 04:19:34;;;;;;;7.13;6.43;;;;;;;20.55;100.00;98405.63;5051464;28;20208;-86
2023/08/23 04:22:00;;;;;;;9.50;6.60;;;;;;;20.59;100.00;98407.00;5052029;28;20212;-86
2023/08/23 04:24:27;;;;;;;7.13;6.37;;;;;;;20.51;100.00;98408.81;5051794;28;20247;-86
2023/08/23 04:26:53;;;;;;;6.83;6.13;;;;;;;20.46;100.00;98403.94;5051743;28;20687;-86
2023/08/23 04:29:22;;;;;;;7.47;6.77;;;;;;;20.43;100.00;98400.72;5051299;28;20693;-86
2023/08/23 04:31:48;;;;;;;9.07;6.53;;;;;;;20.40;100.00;98411.78;5051846;28;20235;-86
2023/08/23 04:34:15;;;;;;;7.80;7.00;;;;;;;20.37;100.00;98407.56;5051238;28;20236;-86
2023/08/23 04:36:41;;;;;;;8.20;6.23;;;;;;;20.38;100.00;98414.63;5051568;28;20204;-86
2023/08/23 04:39:08;;;;;;;7.00;6.30;;;;;;;20.34;100.00;98418.63;5051217;28;20262;-87
2023/08/23 04:41:34;;;;;;;7.00;6.30;;;;;;;20.36;100.00;98416.63;5051571;28;20288;-86
2023/08/23 04:44:01;;;;;;;7.63;6.60;;;;;;;20.39;100.00;98412.78;5051831;28;20227;-86
2023/08/23 04:46:29;;;;;;;10.87;6.90;;;;;;;20.44;100.00;98419.38;5051552;28;20212;-87
2023/08/23 04:48:55;;;;;;;8.00;6.40;;;;;;;20.47;100.00;98427.09;5051280;28;20219;-86
2023/08/23 04:51:22;;;;;;;7.20;6.27;;;;;;;20.43;100.00;98433.78;5051174;28;20227;-86
2023/08/23 04:53:49;;;;;;;9.23;7.17;;;;;;;20.48;100.00;98426.09;5051332;28;20239;-87
2023/08/23 04:56:15;;;;;;;7.47;6.27;;;;;;;20.49;100.00;98425.06;5051371;28;20212;-86
2023/08/23 04:58:42;;;;;;;7.07;6.37;;;;;;;20.56;100.00;98434.19;5051310;28;20667;-86
2023/08/23 05:01:08;;;;;;;7.50;6.17;;;;;;;20.62;100.00;98428.19;5050884;28;20204;-86
2023/08/23 05:03:36;;;;;;;6.70;6.10;;;;;;;20.64;100.00;98431.53;5051242;28;20741;-86
2023/08/23 05:06:03;;;;;;;7.37;6.60;;;;;;;20.67;100.00;98420.47;5051098;28;20220;-87
2023/08/23 05:08:30;;;;;;;8.03;6.47;;;;;;;20.70;100.00;98424.66;5052319;28;20208;-86
2023/08/23 05:10:57;;;;;;;8.87;6.87;;;;;;;20.85;100.00;98423.88;5051657;28;20218;-87
2023/08/23 05:13:24;;;;;;;6.87;6.27;;;;;;;20.88;100.00;98428.97;5050894;28;20219;-86
2023/08/23 05:15:53;;;;;;;6.63;5.93;;;;;;;20.94;100.00;98417.59;5050991;28;20216;-86
2023/08/23 05:18:20;;;;;;;7.33;6.30;;;;;;;20.95;100.00;98423.78;5051221;28;20218;-86
2023/08/23 05:20:54;;;;;;;7.43;6.70;;;;;;;21.00;100.00;98433.06;5051025;28;20218;-87
2023/08/23 05:23:20;;;;;;;7.93;6.43;;;;;;;21.03;100.00;98432.72;5051062;28;20238;-86
2023/08/23 05:25:47;;;;;;;10.37;6.73;;;;;;;21.12;100.00;98430.88;5054229;28;20204;-86
2023/08/23 05:28:13;;;;;;;7.10;6.40;;;;;;;21.19;100.00;98424.69;5055098;28;20299;-86
2023/08/23 05:30:40;;;;;;;7.10;6.40;;;;;;;21.18;100.00;98428.41;5054697;28;20215;-86
2023/08/23 05:33:07;;;;;;;7.30;6.23;;;;;;;21.27;100.00;98423.88;5054967;28;20299;-87
2023/08/23 05:35:34;;;;;;;7.03;6.27;;;;;;;21.36;99.66;98423.72;5054964;28;20227;-86
2023/08/23 05:38:01;;;;;;;7.13;6.43;;;;;;;21.45;97.83;98420.03;5054946;28;20231;-86
2023/08/23 05:40:28;;;;;;;8.00;6.50;;;;;;;21.50;97.26;98420.38;5054638;28;20208;-86
2023/08/23 05:42:55;;;;;;;7.67;6.70;;;;;;;21.58;96.46;98427.59;5054678;28;20204;-86
2023/08/23 05:45:22;;;;;;;10.07;7.77;;;;;;;21.69;95.46;98420.06;5054950;28;20224;-87
2023/08/23 05:47:49;;;;;;;8.40;6.63;;;;;;;21.72;94.68;98419.75;5055287;28;20322;-86
2023/08/23 05:50:15;;;;;;;9.27;6.50;;;;;;;21.65;95.15;98423.22;5054759;28;20214;-86
2023/08/23 05:52:42;;;;;;;8.37;6.43;;;;;;;21.65;96.25;98428.63;5054816;28;20208;-86
2023/08/23 05:55:10;;;;;;;7.73;5.97;;;;;;;21.71;96.49;98439.56;5054957;28;20236;-86
2023/08/23 05:57:36;;;;;;;6.77;5.83;;;;;;;21.81;95.85;98444.78;5057842;28;20580;-85
2023/08/23 06:00:05;;;;;;;8.83;6.63;;;;;;;21.89;94.80;98437.53;5056248;28;20208;-86
2023/08/23 06:02:31;;;;;;;8.37;6.40;;;;;;;22.03;94.09;98439.56;5056190;28;20208;-86
2023/08/23 06:04:58;;;;;;;9.10;6.77;;;;;;;22.24;92.17;98434.47;5056067;28;20231;-85
2023/08/23 06:07:25;;;;;;;7.97;6.60;;;;;;;22.65;89.72;98441.47;5054916;28;20208;-86
2023/08/23 06:09:51;;;;;;;9.70;6.93;;;;;;;22.97;86.49;98425.16;5053883;28;20228;-86
2023/08/23 06:12:20;;;;;;;6.80;6.13;;;;;;;23.47;83.62;98430.94;5054036;28;20698;-86
2023/08/23 06:14:47;;;;;;;8.80;6.40;;;;;;;23.88;80.62;98415.28;5053930;28;20699;-86
2023/08/23 06:17:13;;;;;;;6.97;6.27;;;;;;;24.13;78.11;98412.19;5054102;28;20208;-86
2023/08/23 06:19:39;;;;;;;7.37;5.60;;;;;;;24.35;76.88;98408.59;5053655;28;20343;-86
2023/08/23 06:22:06;;;;;;;7.00;5.83;;;;;;;24.39;76.36;98409.06;5054016;28;20208;-86
2023/08/23 06:24:33;;;;;;;7.03;6.03;;;;;;;24.13;77.32;98416.78;5053904;28;20228;-87
2023/08/23 06:26:59;;;;;;;7.40;6.10;;;;;;;23.88;79.51;98421.53;5054036;28;20219;-86
2023/08/23 06:29:27;;;;;;;6.90;5.70;;;;;;;23.69;81.36;98430.09;5053488;28;20212;-86
2023/08/23 06:31:53;;;;;;;7.30;6.00;;;;;;;23.54;81.67;98418.41;5053872;28;20208;-86
2023/08/23 06:34:20;;;;;;;6.73;5.83;;;;;;;23.45;83.89;98429.44;5053610;28;20240;-86
2023/08/23 06:36:46;;;;;;;6.83;6.13;;;;;;;23.44;85.02;98422.38;5052918;28;20204;-86
2023/08/23 06:39:13;;;;;;;7.47;5.77;;;;;;;23.50;84.81;98424.34;5053089;28;20216;-86
2023/08/23 06:41:39;;;;;;;7.27;6.17;;;;;;;23.62;84.11;98429.16;5053546;28;20212;-86
2023/08/23 06:44:06;;;;;;;6.73;5.60;;;;;;;23.74;84.17;98427.72;5053523;28;20311;-86
2023/08/23 06:46:34;;;;;;;6.67;6.03;;;;;;;23.87;83.15;98425.28;5053431;28;20693;-86
2023/08/23 06:49:00;;;;;;;6.83;6.13;;;;;;;24.06;81.91;98422.06;5053474;28;20322;-86
2023/08/23 06:51:28;;;;;;;7.57;6.07;;;;;;;24.21;79.81;98422.91;5053272;28;20204;-86
2023/08/23 06:53:55;;;;;;;6.20;5.60;;;;;;;24.26;79.63;98431.28;5053949;28;20305;-86
2023/08/23 06:56:21;;;;;;;6.00;5.43;;;;;;;24.38;77.56;98424.41;5053785;28;20263;-86
2023/08/23 06:58:48;;;;;;;6.47;5.63;;;;;;;24.52;76.88;98420.06;5053906;28;20208;-86
2023/08/23 07:01:16;;;;;;;6.33;5.63;;;;;;;24.49;76.69;98415.84;5053692;28;20219;-86
2023/08/23 07:03:44;;;;;;;8.67;6.33;;;;;;;24.50;77.72;98414.81;5053508;28;20228;-87
2023/08/23 07:06:13;;;;;;;5.97;5.47;;;;;;;24.41;78.45;98424.06;5053599;28;20616;-86
2023/08/23 07:08:41;;;;;;;6.63;5.83;;;;;;;24.35;78.79;98415.84;5053481;28;20214;-86
2023/08/23 07:11:07;;;;;;;6.50;5.90;;;;;;;24.36;79.65;98426.47;5053185;28;20216;-86
2023/08/23 07:13:36;;;;;;;6.30;5.70;;;;;;;24.35;78.48;98418.53;5053257;28;20239;-86
2023/08/23 07:16:04;;;;;;;6.43;5.73;;;;;;;24.41;78.60;98428.59;5053279;28;20597;-87
2023/08/23 07:18:31;;;;;;;6.33;5.67;;;;;;;24.39;79.11;98420.69;5053665;28;20618;-86
2023/08/23 07:20:59;;;;;;;6.20;5.60;;;;;;;24.58;76.92;98422.03;5053286;28;20215;-86
2023/08/23 07:23:26;;;;;;;5.73;5.20;;;;;;;24.55;77.25;98425.06;5052961;28;20207;-86
2023/08/23 07:25:52;;;;;;;6.10;5.47;;;;;;;24.64;76.66;98430.22;5053304;28;20557;-86
2023/08/23 07:28:19;;;;;;;6.37;5.53;;;;;;;24.59;76.93;98426.41;5053054;28;20208;-86
2023/08/23 07:30:46;;;;;;;6.13;5.53;;;;;;;24.69;77.92;98433.22;5052826;28;20204;-86
2023/08/23 07:33:12;;;;;;;5.93;5.33;;;;;;;24.77;75.92;98422.31;5053279;28;20210;-87
2023/08/23 07:35:41;;;;;;;5.80;5.20;;;;;;;24.83;75.18;98424.28;5053389;28;20236;-86
2023/08/23 07:38:08;;;;;;;6.23;5.40;;;;;;;24.87;72.94;98417.44;5051249;28;20208;-87
2023/08/23 07:40:37;;;;;;;6.27;5.17;;;;;;;24.91;73.02;98426.88;5052540;28;20211;-86
2023/08/23 07:43:04;;;;;;;6.33;5.40;;;;;;;25.03;70.96;98414.53;5052603;28;20208;-86
2023/08/23 07:45:31;;;;;;;6.30;5.00;;;;;;;24.91;71.03;98416.03;5052702;28;20232;-86
2023/08/23 07:47:57;;;;;;;6.03;5.10;;;;;;;25.03;70.36;98414.53;5051568;28;20212;-84
2023/08/23 07:50:24;;;;;;;6.20;4.97;;;;;;;25.04;71.33;98426.16;5052634;28;20234;-85
2023/08/23 07:52:50;;;;;;;6.27;5.67;;;;;;;25.08;73.01;98428.34;5052849;28;20218;-87
2023/08/23 07:55:18;;;;;;;6.30;5.70;;;;;;;25.18;71.98;98426.16;5059427;28;20241;-84
2023/08/23 07:57:45;;;;;;;5.63;5.07;;;;;;;25.22;68.54;98415.78;5056897;28;20212;-86
2023/08/23 08:00:12;;;;;;;5.23;4.73;;;;;;;25.21;69.05;98412.25;5052151;28;20321;-86
2023/08/23 08:02:42;;;;;;;6.10;5.50;;;;;;;25.26;70.78;98420.66;5052392;28;20258;-86
2023/08/23 08:05:09;;;;;;;8.07;5.40;;;;;;;25.36;70.14;98418.47;5052525;28;20259;-86
2023/08/23 08:07:36;;;;;;;7.07;5.40;;;;;;;25.36;69.27;98409.53;5052491;28;20218;-85
2023/08/23 08:10:02;;;;;;;6.37;5.20;;;;;;;25.33;70.19;98418.88;5052061;28;20208;-86
2023/08/23 08:12:30;;;;;;;6.20;4.82;;;;;;;25.45;69.50;98414.63;5052301;28;20208;-86
2023/08/23 08:15:09;;;;;;;5.10;4.60;;;;;;;25.50;68.73;98417.59;5052144;28;20228;-86
2023/08/23 08:17:35;;;;;;;5.97;4.80;;;;;;;25.67;68.37;98420.88;5052716;28;20230;-86
2023/08/23 08:20:04;;;;;;;5.03;4.53;;;;;;;25.74;67.78;98414.50;5052317;28;20218;-86
2023/08/23 08:22:34;;;;;;;5.87;5.30;;;;;;;25.96;67.37;98412.66;5052573;28;20223;-86
2023/08/23 08:25:05;;;;;;;5.87;4.97;;;;;;;25.95;67.65;98419.94;5052401;28;20653;-86
2023/08/23 08:27:33;;;;;;;5.77;5.00;;;;;;;25.98;67.10;98416.00;5052125;28;20699;-86
2023/08/23 08:29:59;;;;;;;5.87;5.03;;;;;;;25.98;68.43;98427.66;5052124;28;20239;-86
2023/08/23 08:32:27;;;;;;;5.70;5.07;;;;;;;26.13;68.48;98425.72;5052174;28;20219;-86
2023/08/23 08:34:55;;;;;;;6.18;5.45;;;;;;;26.29;68.11;98428.13;5051859;28;20725;-86
2023/08/23 08:37:23;;;;;;;5.78;5.25;;;;;;;26.30;68.15;98421.69;5052495;28;20208;-86
2023/08/23 08:40:03;;;;;;;7.30;5.70;;;;;;;26.40;67.99;98424.84;5053119;28;20208;-87
2023/08/23 08:42:50;;;;;;;5.60;5.00;;;;;;;26.58;66.67;98419.78;5056328;28;20235;-85
2023/08/23 08:45:16;;;;;;;5.60;5.10;;;;;;;26.59;65.71;98416.03;5077071;28;20250;-87
2023/08/23 08:47:43;;;;;;;6.30;5.70;;;;;;;26.40;66.29;98408.59;5077008;28;20203;-86
2023/08/23 08:50:10;;;;;;;6.10;5.47;;;;;;;26.68;65.04;98412.16;5076600;28;20192;-86
2023/08/23 08:56:05;;;;;;;6.47;5.32;;;;;;;26.80;64.01;98406.97;5009709;28;20233;-87
2023/08/23 08:58:39;;;;;;;8.60;6.00;;;;;;;26.91;62.38;98400.97;5054262;28;20192;-87
2023/08/23 09:01:06;;;;;;;6.22;5.07;;;;;;;26.85;62.51;98410.78;5076393;28;20176;-87
2023/08/23 09:03:34;;;;;;;5.43;4.93;;;;;;;26.76;61.92;98406.53;5070402;28;20212;-86
2023/08/23 09:06:00;;;;;;;5.43;4.90;;;;;;;26.79;62.57;98418.88;5073773;28;20275;-86
2023/08/23 09:08:27;;;;;;;5.30;4.80;;;;;;;26.89;62.02;98412.03;5076158;28;20212;-87
2023/08/23 09:10:55;;;;;;;6.10;5.50;;;;;;;26.90;61.52;98400.16;5075972;28;20189;-87
2023/08/23 09:13:21;;;;;;;5.80;4.97;;;;;;;26.76;62.06;98411.97;5076068;28;20192;-86
2023/08/23 09:15:49;;;;;;;5.50;5.00;;;;;;;26.73;63.27;98425.94;5075150;28;20242;-86
2023/08/23 09:18:19;;;;;;;5.88;5.28;;;;;;;26.86;63.46;98423.28;5075531;28;20200;-86
2023/08/23 09:20:45;;;;;;;5.68;5.15;;;;;;;26.98;63.16;98422.50;5070382;28;20212;-86
2023/08/23 09:23:12;;;;;;;5.32;4.85;;;;;;;27.18;63.13;98425.34;5069339;28;20212;-85
2023/08/23 09:25:39;;;;;;;5.70;5.20;;;;;;;27.38;61.32;98423.53;5052726;22;20247;-85
2023/08/23 09:28:05;;;;;;;5.90;5.30;;;;;;;27.56;62.10;98426.50;5031344;28;20672;-85
2023/08/23 09:30:34;;;;;;;5.22;4.72;;;;;;;27.70;60.97;98428.22;5031242;28;20205;-85
2023/08/23 09:33:02;;;;;;;5.57;4.93;;;;;;;27.80;59.97;98412.34;5031649;28;20209;-85
2023/08/23 09:35:29;;;;;;;5.50;4.60;;;;;;;27.96;58.19;98398.38;5031168;28;20315;-85
2023/08/23 09:37:56;;;;;;;5.63;4.78;;;;;;;28.09;57.13;98390.22;5031319;28;20236;-85
2023/08/23 09:40:24;;;;;;;5.60;5.00;;;;;;;27.95;56.11;98383.13;5031083;28;20205;-85
2023/08/23 09:42:52;;;;;;;5.07;4.68;;;;;;;28.08;58.13;98393.97;5031147;28;20201;-85
2023/08/23 09:45:20;;;;;;;4.65;4.25;;;;;;;28.16;56.75;98385.59;5031006;28;20229;-85
2023/08/23 09:47:52;;;;;;;5.20;4.70;;;;;;;28.18;56.93;98388.97;5031258;28;20282;-85
2023/08/23 09:50:21;;;;;;;6.00;4.50;;;;;;;28.28;54.62;98368.47;5031053;28;20205;-85
2023/08/23 09:52:51;;;;;;;5.88;4.65;;;;;;;28.26;53.80;98353.41;5031024;28;20251;-85
2023/08/23 09:55:18;;;;;;;4.90;4.50;;;;;;;28.11;54.81;98360.94;5030852;28;20286;-85
2023/08/23 09:57:45;;;;;;;5.47;4.95;;;;;;;28.16;54.56;98362.00;5031178;28;20261;-84
2023/08/23 10:00:12;;;;;;;6.05;4.93;;;;;;;28.17;55.77;98363.66;5030876;28;20224;-84
2023/08/23 10:02:39;;;;;;;5.13;4.63;;;;;;;28.29;55.81;98369.28;5030802;28;20232;-85
2023/08/23 10:05:07;;;;;;;5.70;5.10;;;;;;;28.37;55.86;98363.66;5030995;28;20316;-84
2023/08/23 10:07:36;;;;;;;5.93;5.30;;;;;;;28.48;57.36;98373.88;5030724;28;20266;-85
2023/08/23 10:10:05;;;;;;;6.65;4.82;;;;;;;28.53;55.84;98371.34;5030642;28;20297;-86
2023/08/23 10:12:33;;;;;;;6.45;4.82;;;;;;;28.49;54.50;98361.97;5033398;28;20262;-86
2023/08/23 10:15:01;;;;;;;5.40;4.90;;;;;;;28.37;54.10;98360.94;5034383;28;20236;-85
2023/08/23 10:17:28;;;;;;;5.00;4.60;;;;;;;28.40;54.91;98365.94;5034601;28;20208;-85
2023/08/23 10:19:54;;;;;;;5.65;5.10;;;;;;;28.52;55.40;98366.97;5034401;28;20209;-86
2023/08/23 10:22:21;;;;;;;5.47;4.88;;;;;;;28.60;54.85;98355.84;5034309;28;20630;-84
2023/08/23 10:24:49;;;;;;;5.20;4.53;;;;;;;28.75;55.72;98361.88;5034338;28;20251;-86
2023/08/23 10:27:17;;;;;;;5.38;4.88;;;;;;;28.71;54.64;98347.00;5034504;28;20208;-85
2023/08/23 10:29:49;;;;;;;5.53;4.85;;;;;;;28.72;55.03;98351.41;5034043;28;20701;-85
2023/08/23 10:32:16;;;;;;;6.60;5.25;;;;;;;28.82;52.83;98340.91;5034477;28;20224;-85
2023/08/23 10:34:43;;;;;;;5.32;4.82;;;;;;;28.77;53.27;98341.56;5034195;28;20718;-86
2023/08/23 10:37:17;;;;;;;5.20;4.70;;;;;;;28.75;53.73;98342.81;5034574;28;20738;-86
2023/08/23 10:39:54;;;;;;;5.28;4.78;;;;;;;28.83;53.27;98350.75;5034130;28;20227;-86
2023/08/23 10:42:21;;;;;;;5.10;4.60;;;;;;;28.90;52.01;98335.22;5034236;28;20216;-86
2023/08/23 10:44:55;;;;;;;4.70;4.30;;;;;;;28.81;51.10;98329.19;5034035;28;20229;-86
2023/08/23 10:47:22;;;;;;;5.45;4.35;;;;;;;28.85;51.23;98337.78;5034078;28;20212;-85
2023/08/23 10:49:50;;;;;;;4.88;4.47;;;;;;;28.83;51.47;98329.81;5033854;28;20220;-85
2023/08/23 10:52:17;;;;;;;4.55;4.15;;;;;;;29.01;51.34;98343.59;5034247;28;20204;-86
2023/08/23 10:54:44;;;;;;;4.80;4.30;;;;;;;29.16;50.66;98332.41;5033961;28;20229;-85
2023/08/23 10:57:11;;;;;;;4.82;4.43;;;;;;;29.17;50.54;98342.25;5033889;28;20657;-85
2023/08/23 10:59:38;;;;;;;6.03;4.40;;;;;;;29.21;49.57;98332.56;5033552;28;20205;-87
2023/08/23 11:02:05;;;;;;;5.10;4.60;;;;;;;29.24;50.39;98343.88;5033760;28;20208;-86
2023/08/23 11:04:32;;;;;;;4.22;3.80;;;;;;;29.52;50.69;98346.22;5033901;28;20239;-84
2023/08/23 11:06:59;;;;;;;5.18;4.65;;;;;;;29.58;48.62;98313.50;5033863;28;20212;-85
2023/08/23 11:09:25;;;;;;;4.35;4.05;;;;;;;29.71;49.29;98320.75;5033706;28;20208;-85
2023/08/23 11:11:52;;;;;;;4.90;4.00;;;;;;;29.90;49.18;98330.63;5033945;28;20831;-86
2023/08/23 11:14:20;;;;;;;5.15;4.65;;;;;;;30.02;49.81;98337.84;5033852;28;20232;-86
2023/08/23 11:16:46;;;;;;;5.20;4.70;;;;;;;30.09;49.45;98332.38;5038033;28;20663;-85
2023/08/23 11:19:13;;;;;;;5.18;4.47;;;;;;;29.89;49.88;98331.69;5042868;28;20209;-85
2023/08/23 11:21:40;;;;;;;5.45;4.95;;;;;;;29.89;49.81;98331.69;5047660;28;20223;-85
2023/08/23 11:24:07;;;;;;;6.50;4.47;;;;;;;29.73;50.20;98337.69;5053549;28;20225;-85
2023/08/23 11:26:33;;;;;;;5.22;4.28;;;;;;;29.65;50.10;98318.91;5051554;28;20210;-85
2023/08/23 11:29:00;;;;;;;4.65;4.25;;;;;;;29.56;51.08;98333.84;5055159;28;20243;-85
2023/08/23 11:31:29;;;;;;;5.60;5.03;;;;;;;29.35;50.13;98309.66;5052976;28;20263;-84
2023/08/23 11:33:56;;;;;;;4.90;4.50;;;;;;;29.23;50.21;98314.97;5053067;28;20239;-85
2023/08/23 11:36:23;;;;;;;5.53;4.82;;;;;;;29.25;51.11;98318.31;5038488;28;20239;-86